Cody, WY

5:23 AM MDT on October 25, 2014 (GMT -0600)
Yellowstone Regional | Change Station
CLOSE
Current Station
Airport
Location: Cody,
Elevation: 5095 ft
Nearby Weather Stations
Active Advisory: High Wind Watch Active Notice: Record Report

Elev 5095 ft 44.52 °N, 109.02 °W | Updated 8 minutes ago

Clear
Clear
36 °F
Feels Like 31 °F
N
6
Wind Variable Wind from South

Today
High -- | Low -- °F
--% Chance of Precip.
Yesterday
High -- | Low -- °F
Precip. -- in
7:44 AM 6:15 PM
Waxing Crescent, 3% visible
Pressure 30.10 in
Visibility 10.0 miles
Clouds Clear
Windchill 31 °F
Dew Point 30 °F
Humidity 81%
Rainfall 0.00 in
Snow Depth 0 in
UV 0 out of 12
Pollen 2.00 out of 12
Air Quality Not available.
Flu Activity Sporadic
METAR KCOD 251115Z 19005KT 10SM CLR 02/M01 A3010 RMK AO1

More Conditions Fewer Conditions

Pressure 30.10 in
Visibility 10.0 miles
Clouds Clear
Windchill 31 °F
Dew Point 30 °F
Humidity 81%
Rainfall 0.00 in
Snow Depth 0 in
UV 0 out of 12
Pollen 2.00 out of 12
Air Quality Not available.
Flu Activity Sporadic
METAR KCOD 251115Z 19005KT 10SM CLR 02/M01 A3010 RMK AO1

More Conditions Fewer Conditions

10-Day Weather Forecast

Almanac

Astronomy

Oct. 25, 2014 Rise Set
Actual Time 7:44 AM MDT 6:15 PM MDT
Civil Twilight 7:14 AM MDT 6:45 PM MDT
Nautical Twilight 6:40 AM MDT 7:19 PM MDT
Astronomical Twilight 6:06 AM MDT 7:52 PM MDT
Moon 9:29 AM MDT 7:37 PM MDT
Length of Visible Light 11h 30m
Length of Day
10h 30m
Tomorrow will be 2m 51s shorter.
Waxing Crescent, 3% of the Moon is Illuminated
Today
Waxing Crescent
Oct 30
First Quarter
Nov 6
Full
Nov 14
Last Quarter
Nov 22
New

Today's Extremes

State Highs State Lows

Community

WunderPhotos

Upload Photos

1,764,810 photos uploaded!

Nearby

Snow Depth

Station Depth Elevation
Marquette 0 in 8760 ft
Timber Creek 0 in 7950 ft
Beartooth Lake 1 in 9275 ft
Sylvan Lake 0 in 8420 ft
Owl Creek 0 in 8975 ft

Earthquake Activity

City Distance Mag. Time & Date
No recent earthquake activity has been reported nearby.
Minimum magnitude displayed is 2.5.

Coastal Water Temperatures

Place Temperature
No Stations Reporting

Nearby Weather Stations